Terminal Aerodrome Forecast
Issued by NWS

Current Version | Previous Version | Text Only | Print | Product List | Glossary On
Versions: 1 2 3 4 5 6 7 8 9 10 11 12 13 14 15 16
000
FTUS41 KPBZ 261955 AAA
TAFZZV
TAF AMD
KZZV 261955Z 2620/2718 18011KT P6SM VCSH BKN050
     FM270400 18008KT 6SM -SHRA OVC015
     FM270600 18005KT P6SM OVC015=

USA.gov is the U.S. government's official web portal to all federal, state and local government web resources and services.